Grayling, MI

03:29 PM EDT on April 29, 2017 (GMT -0400)
Grayling | | Change Station

Elev 1158 ft 44.68 °N, 84.73 °W | Updated 15 minutes ago

Växlande molnighet
Växlande molnighet
51 °F
Feels Like 51 °F
N
6
Vind Växlande Vind from N/NO

Idag
High -- | Low -- °F
--% Chance of Precip.
Yesterday
High -- | Low -- °F
Precip. -- tum
Lufttryck 30.24 tum
Sikt 10.0 miles
Molnigt Klart
Daggpunkt 28 °F
Luftfuktighet 40%
Rainfall 0.00 tum
Snow Depth Not available.
6:31 AM 8:41 PM
Första kvarteret, 16% visible
METAR KGOV 291914Z AUTO 03005KT 10SM CLR 11/M02 A3024 RMK AO2 T01051025
Lufttryck 30.24 tum
Sikt 10.0 miles
Molnigt Klart
Daggpunkt 28 °F
Luftfuktighet 40%
Rainfall 0.00 tum
Snow Depth Not available.
6:31 AM 8:41 PM
Första kvarteret, 16% visible
METAR KGOV 291914Z AUTO 03005KT 10SM CLR 11/M02 A3024 RMK AO2 T01051025

Get Severe Weather Alerts

Thanks for signing up!

Be on the lookout for a verification email in your inbox.

You'll start receiving the daily forecast at 8 AM.

×

10-Day Weather Forecast

Almanac

Astronomi

Apr. 29, 2017 Rise Set
Actual Time
Civil Twilight
Nautical Twilight
Astronomical Twilight
Månen
Length Of Visible Light
Dagens längd
Tomorrow will be .
, % of the Moon is Illuminated

Today's Extremes

State Highs State Lows

Community

WunderPhotos

WunderBlog® & News

Nearby

Air Quality

  Air Quality AQ Index Pollutant
Not available.

Snödjup

Station Depth Elevation

Earthquake Activity

Stad Distance Mag. Time & Date
Minimum magnitude displayed is 2.5.

Coastal Water Temperatures

Plats Temperatur

Stations

Nearby Weather Stations

Station Location Temp Vindavkylning Daggpunkt Luftfuktighet Vind Precip. Elev Uppdaterad Type
                   

Watches & Warnings

There are currently no watches in effect.